Time;durP1;ratioP1;P1;durP2;ratioP2;P2;SDS_P1;SDS_P2;PMS_P1;PMS_P2;Temp;Humidity;BMP_temperature;BMP_pressure;BME280_temperature;BME280_humidity;BME280_pressure;Samples;Min_cycle;Max_cycle;Signal;HPM_P1;HPM_P2
2022/02/13 00:00:53;;;;;;;39.93;16.57;;;;;;;1.84;60.26;101285.25;4918414;28;101466;-84
2022/02/13 00:03:19;;;;;;;41.57;16.40;;;;;;;1.74;60.66;101272.13;4934579;28;97051;-87
2022/02/13 00:05:45;;;;;;;36.87;15.97;;;;;;;1.96;60.26;101290.63;4929983;28;97185;-85
2022/02/13 00:08:10;;;;;;;33.40;16.10;;;;;;;1.93;60.16;101278.50;4919828;28;97601;-85
2022/02/13 00:10:36;;;;;;;32.17;14.80;;;;;;;1.88;60.18;101262.00;4936863;28;97849;-85
2022/02/13 00:13:02;;;;;;;32.60;14.70;;;;;;;1.91;60.55;101275.00;4923315;28;96912;-87
2022/02/13 00:15:28;;;;;;;32.80;15.03;;;;;;;1.89;60.49;101258.59;4932847;28;97248;-85
2022/02/13 00:17:54;;;;;;;31.03;14.33;;;;;;;1.85;60.08;101225.72;4917475;28;101415;-86
2022/02/13 00:20:20;;;;;;;29.00;13.90;;;;;;;1.89;60.40;101261.19;4931488;28;100781;-86
2022/02/13 00:22:46;;;;;;;24.57;11.73;;;;;;;1.90;59.91;101260.31;4922993;28;99127;-87
2022/02/13 00:25:11;;;;;;;29.50;12.30;;;;;;;1.87;59.85;101238.69;4931720;28;97069;-85
2022/02/13 00:27:37;;;;;;;24.67;10.67;;;;;;;1.93;59.36;101244.84;4917856;28;101310;-87
2022/02/13 00:30:07;;;;;;;16.53;9.00;;;;;;;1.83;59.28;101217.03;4915885;28;101626;-86
2022/02/13 00:32:32;;;;;;;17.73;8.27;;;;;;;1.89;59.37;101242.16;4938138;28;97284;-86
2022/02/13 00:34:58;;;;;;;17.27;7.43;;;;;;;1.90;59.48;101244.78;4921300;28;96978;-87
2022/02/13 00:37:23;;;;;;;12.33;6.13;;;;;;;1.90;59.27;101239.59;4921283;28;97440;-86
2022/02/13 00:39:49;;;;;;;12.80;5.40;;;;;;;1.89;59.24;101211.09;4901332;28;101241;-87
2022/02/13 00:42:15;;;;;;;8.27;4.53;;;;;;;1.99;58.85;101236.28;4921170;28;97185;-86
2022/02/13 00:44:41;;;;;;;9.13;4.37;;;;;;;2.11;58.73;101238.19;4922652;28;96824;-85
2022/02/13 00:47:07;;;;;;;11.20;5.53;;;;;;;2.19;58.35;101231.41;4937667;28;98197;-85
2022/02/13 00:49:33;;;;;;;8.57;4.70;;;;;;;2.25;57.92;101231.50;4921317;28;101205;-86
2022/02/13 00:51:58;;;;;;;10.13;4.30;;;;;;;2.07;58.29;101215.69;4937351;28;96938;-86
2022/02/13 00:54:24;;;;;;;8.70;3.80;;;;;;;2.00;58.15;101187.09;4934979;28;97093;-86
2022/02/13 00:56:50;;;;;;;10.30;3.63;;;;;;;2.32;57.91;101219.50;4922161;28;100991;-85
2022/02/13 00:59:15;;;;;;;5.60;3.90;;;;;;;2.28;58.05;101226.38;4948716;28;98379;-86
2022/02/13 01:01:41;;;;;;;7.07;4.03;;;;;;;2.34;57.87;101220.41;4954627;28;97176;-86
2022/02/13 01:04:07;;;;;;;6.87;3.77;;;;;;;2.40;57.31;101218.75;4920830;28;96898;-86
2022/02/13 01:06:32;;;;;;;7.20;4.20;;;;;;;1.86;58.08;101152.34;4918952;28;99909;-85
2022/02/13 01:08:58;;;;;;;10.73;5.30;;;;;;;2.34;58.31;101225.59;4920067;28;101034;-86
2022/02/13 01:11:23;;;;;;;10.37;4.97;;;;;;;2.18;58.98;101221.88;4937588;28;96705;-86
2022/02/13 01:13:49;;;;;;;9.07;5.27;;;;;;;2.20;59.12;101218.47;4919526;28;97202;-86
2022/02/13 01:16:16;;;;;;;11.57;5.67;;;;;;;2.09;59.11;101204.50;4936907;28;101636;-87
2022/02/13 01:18:41;;;;;;;12.57;5.60;;;;;;;2.17;59.40;101207.19;4936794;28;101473;-85
2022/02/13 01:21:08;;;;;;;9.77;5.27;;;;;;;2.05;58.86;101174.22;4936495;28;97421;-85
2022/02/13 01:23:34;;;;;;;10.17;4.50;;;;;;;2.37;58.59;101204.91;4921952;28;97325;-85
2022/02/13 01:26:00;;;;;;;9.03;4.73;;;;;;;2.35;58.28;101194.50;4936239;28;99749;-85
2022/02/13 01:28:25;;;;;;;8.70;4.07;;;;;;;2.35;57.84;101189.31;4952710;28;101806;-86
2022/02/13 01:30:51;;;;;;;8.80;5.03;;;;;;;2.40;57.41;101186.78;4936549;28;96658;-86
2022/02/13 01:33:17;;;;;;;7.57;4.20;;;;;;;2.41;57.09;101173.84;4936981;28;97162;-85
2022/02/13 01:35:43;;;;;;;8.17;3.83;;;;;;;2.37;57.18;101169.47;4936223;28;102738;-86
2022/02/13 01:38:08;;;;;;;6.87;3.50;;;;;;;2.45;56.94;101177.38;4935183;28;101440;-86
2022/02/13 01:40:34;;;;;;;5.20;2.77;;;;;;;2.40;55.93;101145.34;4920130;28;97716;-86
2022/02/13 01:43:00;;;;;;;9.30;4.40;;;;;;;2.47;56.18;101157.50;4920829;28;97160;-87
2022/02/13 01:45:25;;;;;;;6.90;3.73;;;;;;;2.57;55.97;101161.09;4929821;28;101380;-86
2022/02/13 01:47:51;;;;;;;6.13;3.43;;;;;;;2.57;56.02;101161.09;4920978;28;101379;-87
2022/02/13 01:50:16;;;;;;;5.90;3.10;;;;;;;2.60;55.88;101164.59;4920965;28;96740;-86
2022/02/13 01:52:42;;;;;;;6.33;3.30;;;;;;;2.62;54.96;101149.06;4919871;28;97204;-85
2022/02/13 01:55:10;;;;;;;5.67;3.43;;;;;;;2.65;55.31;101147.38;4918878;28;101244;-86
2022/02/13 01:57:35;;;;;;;7.43;3.67;;;;;;;2.70;55.14;101147.41;4920102;28;99937;-86
2022/02/13 02:00:01;;;;;;;7.83;4.00;;;;;;;2.67;54.87;101158.59;4936769;28;97179;-86
2022/02/13 02:02:37;;;;;;;7.27;3.37;;;;;;;2.64;55.22;101147.34;4933777;28;97126;-85
2022/02/13 02:05:03;;;;;;;5.97;3.03;;;;;;;2.64;55.46;101140.44;4935938;28;97569;-85
2022/02/13 02:07:29;;;;;;;4.60;2.83;;;;;;;2.70;55.51;101147.41;4919386;28;101549;-85
2022/02/13 02:09:55;;;;;;;5.77;3.60;;;;;;;2.55;55.23;101116.13;4920280;28;97138;-85
2022/02/13 02:12:20;;;;;;;6.03;3.17;;;;;;;2.62;54.91;101126.59;4951708;28;96866;-86
2022/02/13 02:14:46;;;;;;;5.73;3.30;;;;;;;2.61;55.34;101124.84;4925321;28;101492;-87
2022/02/13 02:17:12;;;;;;;7.10;4.00;;;;;;;2.68;55.04;101118.03;4934531;28;101457;-86
2022/02/13 02:19:38;;;;;;;8.47;3.53;;;;;;;2.75;54.84;101129.31;4930352;28;97297;-86
2022/02/13 02:22:08;;;;;;;4.87;3.13;;;;;;;2.55;55.03;101092.81;4951582;28;97758;-86
2022/02/13 02:24:34;;;;;;;7.23;3.50;;;;;;;2.67;54.85;101109.34;4919623;28;101605;-85
2022/02/13 02:27:00;;;;;;;5.10;3.33;;;;;;;2.80;54.93;101118.16;4919190;28;101309;-85
2022/02/13 02:29:26;;;;;;;6.97;3.70;;;;;;;2.75;54.77;101114.63;4920607;28;97156;-87
2022/02/13 02:31:52;;;;;;;8.53;4.10;;;;;;;2.84;54.67;101103.47;4919710;28;96951;-86
2022/02/13 02:34:17;;;;;;;6.33;4.00;;;;;;;2.76;55.25;101099.94;4934482;28;101159;-86
2022/02/13 02:36:43;;;;;;;9.27;4.07;;;;;;;2.61;55.38;101090.28;4945776;28;97935;-85
2022/02/13 02:39:09;;;;;;;4.87;3.40;;;;;;;2.67;55.06;101096.38;4919806;28;97190;-86
2022/02/13 02:41:34;;;;;;;6.87;4.17;;;;;;;2.71;55.07;101081.75;4935004;28;97080;-86
2022/02/13 02:44:00;;;;;;;6.00;3.40;;;;;;;2.75;54.86;101082.66;4934217;28;97661;-86
2022/02/13 02:46:26;;;;;;;6.60;3.67;;;;;;;2.77;55.27;101071.44;4934186;28;97951;-86
2022/02/13 02:48:52;;;;;;;8.20;3.67;;;;;;;2.77;55.27;101079.22;4934004;28;96818;-87
2022/02/13 02:51:17;;;;;;;6.23;4.00;;;;;;;2.65;55.05;101038.50;4933281;28;96777;-87
2022/02/13 02:53:43;;;;;;;7.87;4.63;;;;;;;2.81;55.09;101062.81;4918018;28;100044;-85
2022/02/13 02:56:09;;;;;;;6.53;4.37;;;;;;;2.76;54.94;101048.06;4900343;28;101132;-88
2022/02/13 02:58:35;;;;;;;5.87;4.17;;;;;;;2.81;55.29;101059.38;4934521;28;97159;-87
2022/02/13 03:01:01;;;;;;;8.67;4.20;;;;;;;2.86;54.76;101063.75;4933637;28;97384;-86
2022/02/13 03:03:27;;;;;;;6.80;4.20;;;;;;;2.64;55.32;101041.91;4918743;28;101130;-87
2022/02/13 03:05:53;;;;;;;6.87;3.80;;;;;;;2.83;55.15;101066.31;4932707;28;101202;-86
2022/02/13 03:08:19;;;;;;;5.53;3.83;;;;;;;2.74;54.89;101049.81;4934647;28;96767;-86
2022/02/13 03:10:46;;;;;;;10.77;4.50;;;;;;;2.84;55.61;101062.00;4917259;28;97264;-86
2022/02/13 03:13:14;;;;;;;8.83;3.60;;;;;;;2.81;55.10;101061.97;4934442;28;101246;-86
2022/02/13 03:15:40;;;;;;;6.30;3.80;;;;;;;2.64;55.38;101041.03;4918455;28;100841;-85
2022/02/13 03:18:06;;;;;;;7.63;4.13;;;;;;;2.77;55.11;101053.28;4915715;28;96745;-85
2022/02/13 03:20:31;;;;;;;6.87;3.93;;;;;;;2.78;54.93;101051.56;4914425;28;96850;-85
2022/02/13 03:22:57;;;;;;;5.73;3.80;;;;;;;2.88;55.08;101043.88;4933155;28;101410;-85
2022/02/13 03:25:23;;;;;;;7.70;3.90;;;;;;;2.86;55.29;101037.81;4934447;28;97671;-88
2022/02/13 03:27:48;;;;;;;7.60;4.37;;;;;;;2.84;55.18;101028.28;4902579;28;97234;-85
2022/02/13 03:30:14;;;;;;;5.97;3.80;;;;;;;2.86;54.91;101030.03;4935062;28;97154;-86
2022/02/13 03:32:39;;;;;;;5.63;3.97;;;;;;;2.86;55.16;101023.97;4901709;28;99959;-86
2022/02/13 03:35:05;;;;;;;6.90;3.43;;;;;;;2.70;55.13;101005.66;4918142;28;97563;-85
2022/02/13 03:37:31;;;;;;;8.73;4.53;;;;;;;2.77;55.43;101019.59;4934195;28;96807;-85
2022/02/13 03:39:56;;;;;;;6.47;3.53;;;;;;;2.75;55.29;101013.50;4916588;28;97170;-86
2022/02/13 03:42:22;;;;;;;5.03;3.73;;;;;;;2.75;54.94;100997.94;4917853;28;101753;-86
2022/02/13 03:44:49;;;;;;;6.90;3.43;;;;;;;2.81;54.89;101021.34;4918076;28;101610;-86
2022/02/13 03:47:14;;;;;;;8.57;3.90;;;;;;;2.75;55.25;101015.22;4936629;28;96781;-86
2022/02/13 03:49:40;;;;;;;6.70;3.93;;;;;;;2.77;55.08;101013.53;4940397;28;97126;-85
2022/02/13 03:52:07;;;;;;;6.83;4.10;;;;;;;2.90;54.78;101010.16;4939154;28;97804;-86
2022/02/13 03:54:32;;;;;;;5.40;3.60;;;;;;;2.81;54.98;101004.91;4918411;28;101116;-87
2022/02/13 03:56:58;;;;;;;8.33;4.03;;;;;;;2.79;54.97;101002.28;4930403;28;96787;-85
2022/02/13 03:59:23;;;;;;;7.87;3.67;;;;;;;2.75;54.75;101002.28;4930953;28;96956;-86
2022/02/13 04:01:50;;;;;;;6.23;3.90;;;;;;;2.80;55.01;101005.78;4929235;28;101543;-89
2022/02/13 04:04:16;;;;;;;9.97;4.00;;;;;;;2.78;54.55;101020.44;4947739;28;101688;-86
2022/02/13 04:06:41;;;;;;;11.23;4.70;;;;;;;2.84;55.05;101005.81;4926953;28;97138;-86
2022/02/13 04:09:07;;;;;;;7.50;4.17;;;;;;;2.81;54.19;100978.97;4925755;28;97004;-85
2022/02/13 04:11:33;;;;;;;6.97;3.90;;;;;;;2.75;54.57;100982.38;4944918;28;101364;-86
2022/02/13 04:13:58;;;;;;;9.53;4.57;;;;;;;2.89;54.37;100998.06;4938177;28;100062;-85
2022/02/13 04:16:24;;;;;;;5.10;3.40;;;;;;;2.83;54.90;101006.66;4925157;28;97280;-86
2022/02/13 04:18:51;;;;;;;6.40;3.97;;;;;;;2.66;54.36;100956.38;4939656;28;97424;-86
2022/02/13 04:21:16;;;;;;;6.90;3.80;;;;;;;2.92;54.38;100992.91;4936393;28;101912;-86
2022/02/13 04:23:42;;;;;;;7.97;4.03;;;;;;;2.81;54.57;100985.03;4905594;28;102017;-86
2022/02/13 04:26:08;;;;;;;8.57;3.90;;;;;;;2.95;54.31;100983.41;4921593;28;97105;-86
2022/02/13 04:28:33;;;;;;;6.67;4.23;;;;;;;2.92;54.54;100980.81;4920137;28;96880;-85
2022/02/13 04:30:59;;;;;;;7.67;4.60;;;;;;;2.86;55.09;100985.09;4905996;28;101427;-85
2022/02/13 04:33:25;;;;;;;11.93;5.60;;;;;;;2.80;54.72;100969.47;4937221;28;100111;-86
2022/02/13 04:35:51;;;;;;;9.03;5.17;;;;;;;2.71;54.59;100960.75;4904783;28;97224;-87
2022/02/13 04:38:17;;;;;;;10.10;4.83;;;;;;;2.59;54.93;100957.19;4954925;28;97173;-86
2022/02/13 04:40:42;;;;;;;9.17;5.70;;;;;;;2.67;54.97;100973.66;4937104;28;101478;-85
2022/02/13 04:43:08;;;;;;;12.83;6.30;;;;;;;2.60;54.94;100957.19;4936068;28;99845;-87
2022/02/13 04:45:34;;;;;;;14.77;6.07;;;;;;;2.44;55.49;100951.03;4937981;28;97171;-85
2022/02/13 04:47:59;;;;;;;14.40;6.23;;;;;;;2.51;55.50;100951.09;4911660;28;96889;-86
2022/02/13 04:50:26;;;;;;;17.17;7.50;;;;;;;2.31;56.15;100953.47;4920621;28;100263;-86
2022/02/13 04:52:53;;;;;;;20.33;8.37;;;;;;;2.09;56.03;100929.06;4936662;28;100735;-86
2022/02/13 04:55:20;;;;;;;34.47;14.33;;;;;;;2.17;56.01;100942.97;4937004;28;96695;-86
2022/02/13 04:57:46;;;;;;;45.53;16.30;;;;;;;2.15;56.74;100942.09;4953947;28;97091;-85
2022/02/13 05:00:14;;;;;;;23.43;11.43;;;;;;;2.06;56.55;100942.84;4921053;28;101709;-86
2022/02/13 05:02:40;;;;;;;28.33;13.40;;;;;;;1.91;57.10;100937.50;4921186;28;101407;-86
2022/02/13 05:05:06;;;;;;;32.00;13.87;;;;;;;1.67;57.20;100918.25;4924814;28;97114;-86
2022/02/13 05:07:32;;;;;;;27.17;13.67;;;;;;;1.62;57.72;100934.59;4919915;28;97334;-86
2022/02/13 05:09:58;;;;;;;28.50;13.67;;;;;;;1.63;57.90;100926.84;4919785;28;101319;-85
2022/02/13 05:12:23;;;;;;;26.53;12.87;;;;;;;1.53;57.67;100915.50;4937269;28;97595;-85
2022/02/13 05:14:49;;;;;;;25.93;13.53;;;;;;;1.39;58.16;100913.59;4918416;28;97233;-86
2022/02/13 05:17:15;;;;;;;26.17;13.00;;;;;;;1.13;58.17;100888.25;4919613;28;97253;-85
2022/02/13 05:19:41;;;;;;;23.20;11.63;;;;;;;1.42;58.53;100913.63;4925897;28;97994;-85
2022/02/13 05:22:06;;;;;;;23.87;10.90;;;;;;;1.41;58.42;100897.25;4934438;28;100330;-85
2022/02/13 05:24:36;;;;;;;26.17;9.77;;;;;;;1.65;58.00;100906.16;4904113;28;97098;-87
2022/02/13 05:27:04;;;;;;;18.90;9.57;;;;;;;1.59;57.88;100883.66;4920140;28;97178;-86
2022/02/13 05:29:30;;;;;;;17.67;8.83;;;;;;;1.63;57.72;100900.09;4905110;28;101565;-86
2022/02/13 05:31:56;;;;;;;22.60;9.20;;;;;;;1.62;58.12;100903.53;4920219;28;101386;-86
2022/02/13 05:34:21;;;;;;;22.43;9.10;;;;;;;1.72;57.66;100901.06;4951937;28;97242;-86
2022/02/13 05:36:47;;;;;;;20.10;8.80;;;;;;;1.80;57.66;100898.56;4952756;28;98077;-87
2022/02/13 05:39:13;;;;;;;21.70;9.60;;;;;;;1.89;57.22;100903.84;4938415;28;101382;-86
2022/02/13 05:41:38;;;;;;;15.97;8.03;;;;;;;1.77;57.31;100868.31;4940866;28;99454;-85
2022/02/13 05:44:04;;;;;;;17.13;8.97;;;;;;;1.98;56.82;100885.81;4927713;28;97084;-85
2022/02/13 05:46:30;;;;;;;15.17;7.77;;;;;;;2.03;57.13;100893.63;4932961;28;97646;-85
2022/02/13 05:48:56;;;;;;;19.53;9.13;;;;;;;1.95;56.94;100896.16;4919616;28;101760;-85
2022/02/13 05:51:23;;;;;;;19.10;8.83;;;;;;;1.95;56.75;100890.06;4904178;28;101899;-85
2022/02/13 05:53:50;;;;;;;12.70;6.43;;;;;;;2.03;56.61;100901.38;4917023;28;97537;-85
2022/02/13 05:56:15;;;;;;;21.53;9.70;;;;;;;2.10;56.60;100890.25;4919450;28;97623;-86
2022/02/13 05:58:42;;;;;;;9.17;5.70;;;;;;;1.99;56.40;100866.81;4904219;28;101384;-85
2022/02/13 06:01:09;;;;;;;24.43;10.10;;;;;;;2.28;56.29;100891.28;4919141;28;101383;-85
2022/02/13 06:03:35;;;;;;;18.67;7.77;;;;;;;2.31;56.00;100893.88;4919425;28;97128;-86
2022/02/13 06:06:01;;;;;;;10.57;5.23;;;;;;;2.17;55.98;100868.72;4934274;28;97048;-87
2022/02/13 06:08:28;;;;;;;7.77;4.47;;;;;;;2.35;55.46;100855.03;4934498;28;101033;-86
2022/02/13 06:10:54;;;;;;;7.67;3.83;;;;;;;2.40;55.09;100887.06;4951251;28;98248;-87
2022/02/13 06:13:19;;;;;;;10.50;5.80;;;;;;;2.38;55.59;100870.63;4926667;28;97210;-86
2022/02/13 06:15:45;;;;;;;11.13;5.17;;;;;;;2.51;55.37;100869.00;4952734;28;96809;-88
2022/02/13 06:18:11;;;;;;;9.23;4.63;;;;;;;2.42;55.36;100862.03;4903821;28;101322;-85
2022/02/13 06:20:37;;;;;;;7.37;4.57;;;;;;;2.45;55.00;100858.59;4935450;28;99541;-86
2022/02/13 06:23:02;;;;;;;7.87;4.33;;;;;;;2.50;55.43;100862.06;4915306;28;97031;-86
2022/02/13 06:25:28;;;;;;;9.30;3.83;;;;;;;2.54;55.37;100868.16;4933187;28;96835;-86
2022/02/13 06:27:53;;;;;;;8.87;4.40;;;;;;;2.49;54.85;100868.13;4936245;28;101951;-86
2022/02/13 06:30:19;;;;;;;8.37;4.73;;;;;;;2.62;54.64;100859.59;4936261;28;101114;-85
2022/02/13 06:32:45;;;;;;;7.73;4.57;;;;;;;2.56;54.96;100850.88;4903903;28;97508;-85
2022/02/13 06:35:11;;;;;;;8.93;4.50;;;;;;;2.56;54.62;100856.97;4915444;28;98179;-86
2022/02/13 06:37:39;;;;;;;7.83;4.33;;;;;;;2.66;54.57;100856.16;4932297;28;98026;-86
2022/02/13 06:40:05;;;;;;;7.67;4.67;;;;;;;2.63;54.33;100861.31;4918875;28;97931;-86
2022/02/13 06:42:31;;;;;;;10.27;4.77;;;;;;;2.67;53.98;100857.00;4934209;28;96825;-85
2022/02/13 06:44:57;;;;;;;6.77;4.93;;;;;;;2.75;54.21;100859.66;4934419;28;98140;-86
2022/02/13 06:47:22;;;;;;;10.33;4.47;;;;;;;2.83;54.17;100878.75;4934635;28;97665;-85
2022/02/13 06:49:48;;;;;;;7.60;4.60;;;;;;;2.62;54.29;100844.03;4935650;28;97445;-85
2022/02/13 06:52:14;;;;;;;6.77;4.67;;;;;;;2.88;54.38;100875.31;4932715;28;96874;-85
2022/02/13 06:54:39;;;;;;;7.10;4.70;;;;;;;2.88;54.35;100877.91;4944598;28;97262;-85
2022/02/13 06:57:05;;;;;;;8.47;4.67;;;;;;;2.69;54.01;100845.81;4944085;28;101250;-85
2022/02/13 06:59:30;;;;;;;9.90;5.33;;;;;;;2.70;54.16;100825.91;4942778;28;101058;-85
2022/02/13 07:01:56;;;;;;;11.80;4.70;;;;;;;2.69;54.10;100825.06;4936236;28;96904;-87
2022/02/13 07:04:22;;;;;;;9.67;4.37;;;;;;;2.88;54.30;100851.97;4934862;28;96867;-85
2022/02/13 07:06:47;;;;;;;7.77;4.97;;;;;;;2.96;54.63;100857.19;4934891;28;97568;-88
2022/02/13 07:09:13;;;;;;;12.67;5.93;;;;;;;2.99;54.17;100869.31;4938632;28;102055;-85
2022/02/13 07:11:38;;;;;;;19.97;7.83;;;;;;;2.80;53.93;100847.59;4918716;28;97378;-85
2022/02/13 07:14:04;;;;;;;11.13;5.07;;;;;;;2.94;54.29;100862.38;4918152;28;97060;-86
2022/02/13 07:16:29;;;;;;;26.27;9.07;;;;;;;2.99;54.27;100861.53;4917432;28;97416;-85
2022/02/13 07:18:56;;;;;;;43.33;12.57;;;;;;;3.03;53.89;100865.91;4918152;28;101307;-85
2022/02/13 07:21:22;;;;;;;25.77;8.33;;;;;;;3.03;54.40;100852.94;4919452;28;96879;-86
2022/02/13 07:23:47;;;;;;;22.33;8.30;;;;;;;3.08;53.80;100851.19;4919830;28;96872;-86
2022/02/13 07:26:13;;;;;;;15.67;6.43;;;;;;;3.07;54.06;100857.25;4915347;28;101417;-85
2022/02/13 07:31:23;;;;;;;28.23;9.53;;;;;;;3.21;53.71;100853.00;4924610;28;96755;-87
2022/02/13 07:33:48;;;;;;;30.90;11.23;;;;;;;3.10;53.51;100845.16;4933350;28;96814;-86
2022/02/13 07:36:14;;;;;;;10.57;5.87;;;;;;;3.28;52.91;100853.88;4925075;28;101513;-86
2022/02/13 07:38:40;;;;;;;35.97;10.00;;;;;;;3.35;53.34;100863.44;4937016;28;101318;-85
2022/02/13 07:41:07;;;;;;;16.53;6.97;;;;;;;3.29;52.98;100832.28;4910693;28;97193;-85
2022/02/13 07:43:33;;;;;;;33.80;9.80;;;;;;;3.46;52.87;100846.19;4934673;28;96796;-86
2022/02/13 07:45:59;;;;;;;12.67;5.90;;;;;;;3.62;52.41;100841.91;4932708;28;97438;-85
2022/02/13 07:48:25;;;;;;;10.67;5.60;;;;;;;3.73;52.46;100836.75;4924556;28;101101;-86
2022/02/13 07:50:50;;;;;;;20.27;7.70;;;;;;;3.71;51.97;100812.50;4933447;28;96884;-84
2022/02/13 07:53:17;;;;;;;14.93;6.73;;;;;;;3.77;51.99;100777.00;4937571;28;96809;-85
2022/02/13 07:55:43;;;;;;;23.97;7.43;;;;;;;4.32;51.23;100828.13;4916757;28;101351;-87
2022/02/13 07:58:08;;;;;;;18.00;7.80;;;;;;;4.64;50.19;100833.28;4946332;28;98174;-87
2022/02/13 08:00:34;;;;;;;11.33;5.67;;;;;;;4.86;50.23;100848.84;4933577;28;96802;-87
2022/02/13 08:02:59;;;;;;;28.37;8.93;;;;;;;5.03;49.70;100841.00;4932812;28;98672;-84
2022/02/13 08:05:25;;;;;;;17.17;7.60;;;;;;;5.55;48.69;100839.03;4900901;28;101557;-83
2022/02/13 08:07:51;;;;;;;12.80;6.10;;;;;;;5.34;49.15;100857.38;4920251;28;97402;-83
2022/02/13 08:10:17;;;;;;;12.10;5.43;;;;;;;5.10;49.26;100845.34;4933080;28;96761;-82
2022/02/13 08:12:43;;;;;;;18.50;8.30;;;;;;;5.16;49.36;100838.38;4916869;28;97560;-85
2022/02/13 08:15:10;;;;;;;12.00;6.47;;;;;;;5.16;49.39;100843.56;4932411;28;98232;-85
2022/02/13 08:17:35;;;;;;;12.77;6.23;;;;;;;5.36;48.97;100850.44;4933142;28;101724;-83
2022/02/13 08:20:05;;;;;;;11.73;6.17;;;;;;;5.80;48.07;100858.03;4917206;28;96839;-91
2022/02/13 08:22:33;;;;;;;14.53;7.67;;;;;;;6.10;47.74;100835.25;4918740;28;96872;-93
2022/02/13 08:24:59;;;;;;;12.10;6.60;;;;;;;6.51;46.55;100836.66;4918219;28;100131;-85
2022/02/13 08:27:24;;;;;;;15.17;6.80;;;;;;;7.06;45.31;100849.16;4936858;28;101830;-82
2022/02/13 08:29:51;;;;;;;15.03;6.27;;;;;;;6.92;44.62;100814.50;4932728;28;97433;-83
2022/02/13 08:32:17;;;;;;;9.93;5.43;;;;;;;7.45;44.45;100844.34;4931618;28;96856;-83
2022/02/13 08:34:43;;;;;;;8.37;5.37;;;;;;;7.63;43.82;100840.63;4946492;28;98159;-84
2022/02/13 08:37:08;;;;;;;14.20;6.30;;;;;;;7.74;44.15;100841.34;4919355;28;101730;-85
2022/02/13 08:39:34;;;;;;;9.47;5.60;;;;;;;7.99;43.77;100843.59;4941931;28;96775;-88
2022/02/13 08:42:00;;;;;;;9.40;6.07;;;;;;;8.03;43.07;100808.66;4952211;28;97036;-89
2022/02/13 08:44:26;;;;;;;9.93;5.73;;;;;;;8.36;42.71;100844.72;4932602;28;101784;-88
2022/02/13 08:46:51;;;;;;;9.80;5.75;;;;;;;8.48;42.40;100845.47;4932370;28;101492;-87
2022/02/13 08:49:17;;;;;;;8.13;6.20;;;;;;;8.29;41.72;100795.16;4924603;28;97237;-86
2022/02/13 08:51:44;;;;;;;13.43;6.63;;;;;;;8.80;41.89;100832.66;4939910;28;96935;-84
2022/02/13 08:54:09;;;;;;;11.70;6.03;;;;;;;9.06;40.66;100826.06;4920495;28;101034;-85
2022/02/13 08:56:35;;;;;;;10.60;5.80;;;;;;;9.15;40.91;100820.63;4936297;28;101302;-89
2022/02/13 08:59:01;;;;;;;8.98;5.93;;;;;;;9.26;40.41;100823.03;4932366;28;96649;-88
2022/02/13 09:01:27;;;;;;;10.13;5.68;;;;;;;9.24;39.99;100789.00;4948925;28;96960;-90
2022/02/13 09:03:52;;;;;;;9.20;5.53;;;;;;;9.50;40.25;100824.28;4939321;28;100244;-90
2022/02/13 09:06:18;;;;;;;10.15;5.20;;;;;;;9.69;39.30;100803.78;4953142;28;98032;-91
2022/02/13 09:08:44;;;;;;;7.38;5.30;;;;;;;9.93;39.25;100831.19;4930958;28;97122;-91
2022/02/13 09:11:10;;;;;;;11.13;5.70;;;;;;;9.94;38.56;100830.28;4946417;28;97148;-89
2022/02/13 09:13:36;;;;;;;8.27;5.55;;;;;;;9.96;39.56;100826.72;4919881;28;100804;-90
2022/02/13 09:16:02;;;;;;;9.40;5.57;;;;;;;10.18;39.07;100795.59;4936172;28;100936;-90
2022/02/13 09:18:27;;;;;;;8.85;4.93;;;;;;;10.18;39.00;100782.50;4921056;28;96674;-90
2022/02/13 09:20:53;;;;;;;11.15;6.03;;;;;;;10.23;38.63;100794.63;4937141;28;96778;-90
2022/02/13 09:23:21;;;;;;;9.68;6.25;;;;;;;10.14;39.20;100811.44;4931998;28;99493;-90
2022/02/13 09:25:47;;;;;;;9.40;5.22;;;;;;;10.55;38.43;100827.94;4935949;28;98278;-89
2022/02/13 09:28:16;;;;;;;7.63;5.05;;;;;;;11.04;37.46;100808.25;4920259;28;96839;-89
2022/02/13 09:30:46;;;;;;;9.00;5.35;;;;;;;11.10;36.96;100805.44;4953215;28;96797;-90
2022/02/13 09:33:13;;;;;;;10.98;5.45;;;;;;;11.04;36.72;100803.84;4926888;28;101670;-90
2022/02/13 09:35:38;;;;;;;11.23;5.40;;;;;;;10.86;37.07;100792.09;4919541;28;100423;-91
2022/02/13 09:38:04;;;;;;;10.13;6.10;;;;;;;10.88;36.88;100789.44;4952991;28;96894;-94
2022/02/13 09:40:33;;;;;;;8.07;5.63;;;;;;;10.90;36.25;100758.72;4937227;28;97230;-92
2022/02/13 09:43:03;;;;;;;10.02;5.68;;;;;;;11.30;36.43;100776.81;4937348;28;100760;-91
2022/02/13 09:45:29;;;;;;;8.75;6.00;;;;;;;11.91;36.20;100796.91;4919870;28;101150;-92
2022/02/13 09:47:58;;;;;;;8.38;5.32;;;;;;;11.54;35.96;100734.91;4951847;28;97218;-93
2022/02/13 09:50:24;;;;;;;8.27;5.65;;;;;;;12.05;35.91;100722.78;4935205;28;96897;-92
2022/02/13 09:52:54;;;;;;;8.60;5.80;;;;;;;12.61;35.49;100778.75;4952517;28;98586;-92
2022/02/13 09:55:30;;;;;;;8.60;5.70;;;;;;;12.66;34.54;100736.44;4916458;28;101384;-91
2022/02/13 09:57:59;;;;;;;11.30;6.03;;;;;;;12.89;34.22;100765.44;4936940;28;96879;-92
2022/02/13 10:00:55;;;;;;;9.25;5.85;;;;;;;12.71;34.73;100778.41;4931150;28;96791;-93
2022/02/13 10:03:23;;;;;;;7.78;5.82;;;;;;;12.98;34.37;100764.25;4911466;28;101527;-92
2022/02/13 10:05:50;;;;;;;8.43;5.38;;;;;;;12.83;34.21;100762.19;4916428;28;101384;-94
2022/02/13 10:08:36;;;;;;;7.32;5.03;;;;;;;12.41;34.88;100774.16;4936012;28;96914;-89
2022/02/13 10:11:29;;;;;;;8.48;5.88;;;;;;;12.43;35.04;100772.34;4931575;28;97817;-84
2022/02/13 10:13:57;;;;;;;9.93;5.82;;;;;;;12.41;34.08;100739.94;4935410;28;101151;-84
2022/02/13 10:16:28;;;;;;;9.88;5.95;;;;;;;12.86;34.38;100762.94;4933563;28;101423;-83
2022/02/13 10:19:20;;;;;;;10.55;6.30;;;;;;;12.84;34.55;100745.44;4934568;28;97262;-87
2022/02/13 10:21:50;;;;;;;8.23;5.18;;;;;;;13.22;33.95;100765.09;4934706;28;96917;-87
2022/02/13 10:24:20;;;;;;;11.20;6.32;;;;;;;12.87;34.05;100747.97;4916503;28;101961;-85
2022/02/13 10:27:08;;;;;;;10.32;5.50;;;;;;;12.68;33.84;100739.88;4918784;28;96812;-86
2022/02/13 10:29:39;;;;;;;9.27;5.32;;;;;;;12.64;34.78;100751.44;4933947;28;97257;-87
2022/02/13 10:32:10;;;;;;;7.93;5.13;;;;;;;12.74;34.86;100749.31;4901397;28;97327;-80
2022/02/13 10:34:36;;;;;;;10.15;4.90;;;;;;;12.86;34.34;100717.28;4933017;28;98226;-83
2022/02/13 10:37:01;;;;;;;11.02;4.95;;;;;;;12.90;33.34;100737.31;4917668;28;101509;-83
2022/02/13 10:39:28;;;;;;;6.90;4.60;;;;;;;12.44;33.35;100710.00;4917647;28;97224;-84
2022/02/13 10:41:54;;;;;;;8.02;4.60;;;;;;;12.46;34.02;100721.34;4923837;28;96984;-84
2022/02/13 10:44:29;;;;;;;6.18;4.45;;;;;;;12.36;33.87;100738.38;4930660;28;98284;-84
2022/02/13 10:46:55;;;;;;;6.35;4.18;;;;;;;12.15;34.36;100740.84;4919744;28;97167;-84
2022/02/13 10:49:20;;;;;;;7.13;5.00;;;;;;;12.22;34.10;100726.56;4919235;28;97170;-84
2022/02/13 10:51:46;;;;;;;12.07;5.10;;;;;;;12.08;34.40;100718.28;4932517;28;97015;-85
2022/02/13 10:54:12;;;;;;;8.23;4.97;;;;;;;12.07;35.04;100692.88;4896942;28;100692;-83
2022/02/13 10:56:38;;;;;;;8.68;4.50;;;;;;;11.55;35.81;100690.19;4913742;28;101382;-84
2022/02/13 10:59:07;;;;;;;9.30;5.05;;;;;;;11.42;36.83;100711.63;4946498;28;97302;-84
2022/02/13 11:01:34;;;;;;;9.35;4.95;;;;;;;10.83;37.08;100695.00;4950368;28;96779;-83
2022/02/13 11:04:03;;;;;;;8.55;5.25;;;;;;;10.79;37.36;100710.88;4929523;28;101144;-84
2022/02/13 11:06:38;;;;;;;7.30;4.85;;;;;;;10.46;38.14;100704.81;4929777;28;101455;-84
2022/02/13 11:09:10;;;;;;;10.25;5.40;;;;;;;10.06;38.06;100672.59;4951182;28;96901;-86
2022/02/13 11:11:40;;;;;;;7.28;5.32;;;;;;;10.09;38.37;100690.88;4932119;28;96905;-86
2022/02/13 11:14:06;;;;;;;11.32;5.70;;;;;;;10.03;38.91;100683.19;4920410;28;97995;-87
2022/02/13 11:16:36;;;;;;;11.00;4.80;;;;;;;9.92;38.78;100690.47;4917581;28;101305;-86
2022/02/13 11:19:07;;;;;;;11.55;6.57;;;;;;;9.71;39.50;100655.16;4949956;28;96810;-86
2022/02/13 11:21:34;;;;;;;11.98;5.97;;;;;;;9.57;39.54;100681.72;4934296;28;97323;-84
2022/02/13 11:24:02;;;;;;;10.27;5.65;;;;;;;9.51;39.39;100672.25;4925886;28;101388;-82